createdAt,value
2022-09-26T00:01:34.049Z,16.90
2022-09-26T00:04:30.394Z,16.90
2022-09-26T00:06:59.822Z,16.90
2022-09-26T00:09:28.515Z,16.90
2022-09-26T00:11:55.589Z,16.90
2022-09-26T00:14:26.910Z,16.90
2022-09-26T00:16:54.481Z,16.90
2022-09-26T00:19:22.440Z,16.80
2022-09-26T00:21:49.486Z,16.80
2022-09-26T00:24:17.031Z,16.80
2022-09-26T00:26:44.038Z,16.80
2022-09-26T00:29:13.103Z,16.80
2022-09-26T00:31:44.899Z,16.80
2022-09-26T00:34:17.842Z,16.80
2022-09-26T00:36:48.252Z,16.80
2022-09-26T00:39:16.716Z,16.80
2022-09-26T00:41:44.227Z,16.70
2022-09-26T00:44:49.314Z,16.70
2022-09-26T00:47:38.688Z,16.60
2022-09-26T00:50:23.540Z,16.60
2022-09-26T00:53:00.231Z,16.60
2022-09-26T00:55:35.175Z,16.50
2022-09-26T00:58:39.987Z,16.50
2022-09-26T01:01:07.917Z,16.40
2022-09-26T01:03:38.376Z,16.30
2022-09-26T01:06:05.745Z,16.30
2022-09-26T01:08:39.780Z,16.30
2022-09-26T01:11:11.566Z,16.20
2022-09-26T01:13:43.497Z,16.20
2022-09-26T01:16:10.630Z,16.20
2022-09-26T01:18:38.424Z,16.20
2022-09-26T01:21:37.813Z,16.20
2022-09-26T01:24:26.795Z,16.20
2022-09-26T01:27:25.346Z,16.40
2022-09-26T01:30:11.983Z,16.20
2022-09-26T01:33:01.605Z,16.20
2022-09-26T01:35:44.053Z,16.20
2022-09-26T01:38:35.882Z,16.20
2022-09-26T01:41:30.364Z,16.20
2022-09-26T01:44:23.009Z,16.20
2022-09-26T01:47:21.160Z,16.30
2022-09-26T01:50:03.636Z,16.30
2022-09-26T01:52:55.973Z,16.30
2022-09-26T01:55:32.016Z,16.30
2022-09-26T01:58:44.219Z,16.30
2022-09-26T02:01:15.557Z,16.30
2022-09-26T02:03:53.250Z,16.30
2022-09-26T02:06:38.134Z,16.30
2022-09-26T02:09:15.805Z,16.20
2022-09-26T02:11:48.790Z,16.20
2022-09-26T02:14:32.558Z,16.10
2022-09-26T02:17:11.163Z,16.20
2022-09-26T02:19:59.940Z,16.20
2022-09-26T02:22:31.065Z,16.20
2022-09-26T02:24:59.554Z,16.30
2022-09-26T02:27:27.613Z,16.20
2022-09-26T02:29:55.129Z,16.30
2022-09-26T02:32:33.192Z,16.20
2022-09-26T02:35:01.185Z,16.20
2022-09-26T02:37:32.385Z,16.20
2022-09-26T02:40:00.981Z,16.20
2022-09-26T02:42:39.635Z,16.30
2022-09-26T02:45:32.928Z,16.20
2022-09-26T02:48:38.947Z,16.20
2022-09-26T02:51:32.932Z,16.20
2022-09-26T02:54:42.141Z,16.20
2022-09-26T02:57:29.671Z,16.30
2022-09-26T03:00:17.609Z,16.30
2022-09-26T03:02:52.611Z,16.20
2022-09-26T03:05:23.414Z,16.20
2022-09-26T03:07:57.776Z,16.20
2022-09-26T03:10:30.286Z,16.20
2022-09-26T03:13:09.136Z,16.20
2022-09-26T03:15:39.167Z,16.20
2022-09-26T03:18:11.966Z,16.10
2022-09-26T03:20:39.001Z,16.10
2022-09-26T03:23:05.863Z,16.10
2022-09-26T03:25:33.527Z,16.10
2022-09-26T03:28:05.930Z,16.10
2022-09-26T03:30:34.173Z,16.10
2022-09-26T03:33:21.525Z,16.00
2022-09-26T03:35:49.206Z,16.00
2022-09-26T03:38:16.256Z,16.00
2022-09-26T03:40:49.891Z,16.00
2022-09-26T03:46:40.249Z,15.90
2022-09-26T03:49:10.843Z,15.90
2022-09-26T03:54:28.591Z,16.00
2022-09-26T03:56:55.526Z,15.80
2022-09-26T03:59:22.465Z,15.90
2022-09-26T04:01:51.463Z,15.80
2022-09-26T04:04:18.301Z,15.80
2022-09-26T04:06:45.752Z,15.80
2022-09-26T04:09:17.061Z,15.80
2022-09-26T04:11:48.181Z,15.80
2022-09-26T04:14:15.101Z,15.80
2022-09-26T04:16:43.732Z,15.80
2022-09-26T04:19:23.209Z,15.80
2022-09-26T04:21:52.172Z,15.80
2022-09-26T04:24:21.239Z,15.80
2022-09-26T04:26:48.437Z,15.80
2022-09-26T04:29:16.621Z,15.80
2022-09-26T04:31:53.990Z,15.80
2022-09-26T04:34:27.585Z,15.80
2022-09-26T04:36:55.689Z,15.70
2022-09-26T04:39:23.174Z,15.70
2022-09-26T04:42:15.756Z,15.70
2022-09-26T04:44:43.901Z,15.70
2022-09-26T04:47:11.293Z,15.70
2022-09-26T04:50:13.653Z,15.60
2022-09-26T04:52:41.405Z,15.60
2022-09-26T04:55:09.152Z,15.50
2022-09-26T04:57:37.991Z,15.50
2022-09-26T05:00:07.557Z,15.40
2022-09-26T05:02:34.670Z,15.40
2022-09-26T05:05:01.557Z,15.40
2022-09-26T05:07:29.505Z,15.40
2022-09-26T05:09:56.397Z,15.40
2022-09-26T05:12:24.763Z,15.40
2022-09-26T05:14:53.951Z,15.40
2022-09-26T05:17:21.508Z,15.30
2022-09-26T05:19:49.094Z,15.30
2022-09-26T05:22:29.623Z,15.30
2022-09-26T05:25:14.846Z,15.30
2022-09-26T05:27:41.833Z,15.20
2022-09-26T05:30:09.616Z,15.20
2022-09-26T05:32:36.473Z,15.10
2022-09-26T05:35:05.624Z,15.00
2022-09-26T05:37:36.687Z,15.10
2022-09-26T05:40:22.581Z,15.00
2022-09-26T05:42:51.870Z,15.00
2022-09-26T05:45:19.805Z,15.00
2022-09-26T05:47:48.669Z,14.90
2022-09-26T05:50:16.500Z,14.90
2022-09-26T05:52:44.406Z,14.90
2022-09-26T05:55:21.842Z,14.90
2022-09-26T05:58:10.049Z,14.90
2022-09-26T06:01:18.204Z,14.90
2022-09-26T06:03:48.168Z,14.90
2022-09-26T06:06:26.782Z,14.90
2022-09-26T06:09:01.908Z,14.90
2022-09-26T06:11:46.214Z,14.90
2022-09-26T06:14:13.363Z,15.00
2022-09-26T06:16:40.346Z,14.90
2022-09-26T06:19:07.557Z,15.00
2022-09-26T06:21:38.179Z,15.00
2022-09-26T06:24:13.057Z,15.10
2022-09-26T06:26:41.160Z,15.10
2022-09-26T06:29:10.841Z,15.20
2022-09-26T06:31:40.742Z,15.20
2022-09-26T06:34:16.399Z,15.30
2022-09-26T06:37:08.017Z,15.40
2022-09-26T06:39:36.930Z,15.50
2022-09-26T06:42:07.230Z,15.60
2022-09-26T06:44:55.195Z,15.70
2022-09-26T06:47:25.181Z,15.90
2022-09-26T06:50:06.872Z,16.00
2022-09-26T06:52:37.179Z,16.10
2022-09-26T06:55:07.017Z,16.30
2022-09-26T06:57:40.308Z,16.50
2022-09-26T07:00:14.418Z,16.60
2022-09-26T07:03:16.810Z,16.80
2022-09-26T07:05:56.835Z,17.00
2022-09-26T07:08:50.059Z,17.20
2022-09-26T07:14:02.287Z,17.60
2022-09-26T07:19:39.715Z,18.10
2022-09-26T07:22:09.443Z,18.40
2022-09-26T07:24:48.655Z,18.60
2022-09-26T07:27:17.081Z,18.90
2022-09-26T07:29:47.318Z,19.10
2022-09-26T07:32:15.792Z,19.30
2022-09-26T07:35:09.779Z,19.50
2022-09-26T07:37:36.923Z,19.80
2022-09-26T07:40:05.989Z,20.00
2022-09-26T07:42:33.260Z,20.20
2022-09-26T07:48:05.710Z,20.70
2022-09-26T07:50:58.112Z,20.90
2022-09-26T07:53:39.304Z,21.10
2022-09-26T07:56:24.550Z,21.30
2022-09-26T07:59:18.710Z,21.50
2022-09-26T08:02:23.048Z,21.70
2022-09-26T08:04:50.238Z,22.00
2022-09-26T08:07:18.915Z,22.20
2022-09-26T08:09:56.820Z,22.40
2022-09-26T08:13:01.694Z,22.60
2022-09-26T08:15:48.877Z,23.00
2022-09-26T08:18:23.687Z,23.10
2022-09-26T08:21:16.334Z,23.20
2022-09-26T08:23:44.989Z,23.20
2022-09-26T08:26:32.102Z,23.20
2022-09-26T08:29:04.489Z,23.20
2022-09-26T08:34:28.063Z,23.40
2022-09-26T08:37:15.443Z,23.60
2022-09-26T08:40:02.761Z,23.80
2022-09-26T08:43:35.762Z,24.00
2022-09-26T08:47:01.990Z,24.20
2022-09-26T08:50:12.171Z,24.50
2022-09-26T08:53:16.087Z,24.70
2022-09-26T08:55:53.657Z,24.80
2022-09-26T08:58:43.380Z,24.80
2022-09-26T09:01:19.914Z,25.00
2022-09-26T09:05:02.476Z,25.00
2022-09-26T09:07:32.368Z,24.60
2022-09-26T09:10:06.383Z,24.50
2022-09-26T09:13:40.515Z,24.40
2022-09-26T09:17:03.350Z,24.20
2022-09-26T09:20:11.912Z,24.10
2022-09-26T09:23:23.882Z,24.00
2022-09-26T09:29:53.401Z,24.20
2022-09-26T09:32:57.133Z,24.20
2022-09-26T09:35:49.772Z,24.60
2022-09-26T09:38:49.157Z,24.70
2022-09-26T09:41:47.377Z,24.80
2022-09-26T09:44:47.366Z,24.80
2022-09-26T09:47:16.996Z,24.80
2022-09-26T09:49:48.045Z,24.70
2022-09-26T09:52:48.462Z,24.50
2022-09-26T09:55:50.320Z,24.40
2022-09-26T09:58:45.316Z,24.50
2022-09-26T10:01:47.473Z,24.80
2022-09-26T10:05:25.962Z,25.30
2022-09-26T10:07:59.017Z,25.90
2022-09-26T10:14:46.113Z,26.70
2022-09-26T10:17:31.303Z,27.00
2022-09-26T10:20:45.638Z,27.40
2022-09-26T10:23:33.772Z,27.80
2022-09-26T10:26:06.084Z,28.30
2022-09-26T10:28:44.615Z,28.70
2022-09-26T10:31:22.564Z,29.10
2022-09-26T10:34:24.691Z,29.40
2022-09-26T10:36:52.665Z,29.50
2022-09-26T10:39:41.170Z,29.60
2022-09-26T10:42:20.006Z,29.60
2022-09-26T10:44:50.529Z,29.80
2022-09-26T10:47:25.003Z,29.80
2022-09-26T10:50:24.942Z,29.70
2022-09-26T10:53:22.420Z,29.40
2022-09-26T10:55:57.362Z,29.10
2022-09-26T10:58:29.773Z,28.60
2022-09-26T11:01:03.513Z,28.20
2022-09-26T11:07:29.055Z,27.60
2022-09-26T11:10:13.748Z,27.50
2022-09-26T11:13:21.990Z,27.50
2022-09-26T11:16:07.269Z,27.40
2022-09-26T11:19:22.172Z,27.20
2022-09-26T11:22:18.928Z,26.80
2022-09-26T11:25:25.548Z,26.40
2022-09-26T11:28:27.326Z,25.90
2022-09-26T11:31:29.325Z,25.50
2022-09-26T11:34:23.900Z,25.10
2022-09-26T11:37:13.312Z,24.60
2022-09-26T11:40:38.984Z,24.40
2022-09-26T11:43:55.373Z,24.00
2022-09-26T11:47:00.408Z,23.80
2022-09-26T11:50:36.745Z,23.50
2022-09-26T11:53:57.949Z,23.20
2022-09-26T11:57:15.288Z,22.90
2022-09-26T12:00:16.360Z,22.70
2022-09-26T12:03:21.836Z,22.60
2022-09-26T12:06:04.183Z,22.40
2022-09-26T12:08:38.561Z,22.30
2022-09-26T12:11:54.226Z,22.30
2022-09-26T12:14:49.055Z,22.20
2022-09-26T12:17:41.429Z,22.20
2022-09-26T12:20:34.603Z,22.10
2022-09-26T12:23:28.388Z,22.00
2022-09-26T12:26:26.303Z,22.10
2022-09-26T12:29:17.930Z,22.00
2022-09-26T12:32:19.008Z,22.00
2022-09-26T12:34:58.535Z,22.10
2022-09-26T12:37:58.350Z,22.40
2022-09-26T12:40:33.943Z,22.80
2022-09-26T12:43:58.283Z,23.10
2022-09-26T12:47:05.217Z,23.30
2022-09-26T12:49:58.417Z,23.50
2022-09-26T12:53:17.329Z,23.70
2022-09-26T12:56:08.144Z,24.20
2022-09-26T12:59:17.517Z,24.60
2022-09-26T13:02:46.782Z,24.90
2022-09-26T13:05:43.257Z,25.30
2022-09-26T13:09:00.830Z,25.90
2022-09-26T13:11:39.683Z,26.30
2022-09-26T13:14:46.945Z,26.90
2022-09-26T13:17:36.300Z,27.20
2022-09-26T13:20:26.310Z,27.30
2022-09-26T13:23:13.031Z,27.20
2022-09-26T13:25:59.304Z,26.90
2022-09-26T13:28:38.287Z,26.60
2022-09-26T13:31:20.574Z,26.20
2022-09-26T13:34:16.870Z,25.90
2022-09-26T13:36:47.923Z,25.40
2022-09-26T13:39:34.050Z,25.20
2022-09-26T13:42:21.344Z,24.80
2022-09-26T13:45:01.946Z,24.40
2022-09-26T13:47:55.063Z,24.10
2022-09-26T13:50:48.861Z,23.80
2022-09-26T13:53:29.027Z,23.50
2022-09-26T13:56:36.129Z,23.40
2022-09-26T13:59:12.833Z,23.20
2022-09-26T14:02:18.888Z,23.20
2022-09-26T14:04:48.529Z,23.20
2022-09-26T14:07:36.551Z,23.30
2022-09-26T14:10:07.751Z,23.40
2022-09-26T14:13:08.313Z,23.50
2022-09-26T14:15:47.872Z,23.40
2022-09-26T14:18:21.218Z,23.40
2022-09-26T14:21:34.247Z,23.30
2022-09-26T14:24:38.383Z,23.20
2022-09-26T14:27:12.132Z,23.10
2022-09-26T14:29:38.855Z,23.10
2022-09-26T14:32:43.182Z,23.00
2022-09-26T14:35:25.570Z,23.00
2022-09-26T14:38:04.362Z,23.00
2022-09-26T14:40:37.731Z,22.90
2022-09-26T14:43:19.518Z,22.80
2022-09-26T14:45:59.902Z,22.70
2022-09-26T14:48:40.218Z,22.70
2022-09-26T14:51:16.332Z,22.60
2022-09-26T14:53:48.922Z,22.50
2022-09-26T14:56:16.378Z,22.40
2022-09-26T14:58:55.384Z,22.20
2022-09-26T15:01:36.779Z,22.10
2022-09-26T15:04:30.492Z,22.00
2022-09-26T15:07:25.223Z,21.80
2022-09-26T15:10:00.413Z,21.70
2022-09-26T15:12:56.489Z,21.60
2022-09-26T15:15:45.783Z,21.50
2022-09-26T15:18:27.785Z,21.40
2022-09-26T15:21:28.258Z,21.40
2022-09-26T15:23:58.425Z,21.30
2022-09-26T15:26:33.949Z,21.30
2022-09-26T15:29:01.450Z,21.40
2022-09-26T15:31:43.544Z,21.40
2022-09-26T15:34:31.245Z,21.30
2022-09-26T15:37:00.202Z,21.40
2022-09-26T15:39:33.325Z,21.30
2022-09-26T15:42:49.417Z,21.30
2022-09-26T15:45:33.252Z,21.20
2022-09-26T15:48:20.105Z,21.10
2022-09-26T15:51:02.951Z,21.10
2022-09-26T15:53:50.726Z,21.10
2022-09-26T15:56:43.904Z,20.90
2022-09-26T16:02:28.256Z,20.90
2022-09-26T16:04:55.887Z,20.80
2022-09-26T16:07:30.708Z,20.80
2022-09-26T16:09:58.822Z,20.90
2022-09-26T16:12:30.324Z,20.70
2022-09-26T16:15:05.675Z,20.60
2022-09-26T16:17:36.578Z,20.70
2022-09-26T16:20:11.684Z,20.60
2022-09-26T16:22:45.743Z,20.40
2022-09-26T16:25:15.845Z,20.30
2022-09-26T16:27:43.316Z,20.20
2022-09-26T16:30:25.481Z,20.20
2022-09-26T16:33:07.968Z,20.10
2022-09-26T16:35:38.322Z,19.80
2022-09-26T16:38:32.648Z,19.90
2022-09-26T16:41:31.369Z,19.70
2022-09-26T16:44:33.596Z,19.70
2022-09-26T16:47:05.582Z,19.50
2022-09-26T16:49:48.228Z,19.40
2022-09-26T16:52:28.771Z,19.30
2022-09-26T16:54:59.691Z,19.20
2022-09-26T16:57:31.429Z,19.10
2022-09-26T17:00:26.429Z,19.00
2022-09-26T17:02:53.431Z,18.90
2022-09-26T17:05:21.827Z,18.80
2022-09-26T17:07:50.165Z,18.80
2022-09-26T17:10:19.674Z,18.70
2022-09-26T17:12:53.208Z,18.60
2022-09-26T17:15:27.898Z,18.50
2022-09-26T17:17:56.733Z,18.40
2022-09-26T17:20:24.739Z,18.40
2022-09-26T17:22:51.706Z,18.30
2022-09-26T17:25:18.765Z,18.20
2022-09-26T17:27:48.095Z,18.10
2022-09-26T17:30:18.605Z,18.10
2022-09-26T17:32:50.110Z,18.10
2022-09-26T17:35:25.876Z,18.00
2022-09-26T17:37:54.259Z,18.00
2022-09-26T17:40:28.472Z,17.90
2022-09-26T17:42:59.680Z,17.90
2022-09-26T17:45:36.678Z,18.00
2022-09-26T17:48:10.979Z,17.80
2022-09-26T17:50:38.845Z,17.60
2022-09-26T17:53:07.983Z,17.70
2022-09-26T17:55:35.881Z,17.80
2022-09-26T17:58:05.158Z,17.70
2022-09-26T18:00:43.353Z,17.80
2022-09-26T18:03:39.461Z,17.50
2022-09-26T18:06:07.983Z,17.50
2022-09-26T18:08:37.366Z,17.50
2022-09-26T18:11:10.813Z,17.40
2022-09-26T18:13:47.340Z,17.40
2022-09-26T18:16:16.165Z,17.30
2022-09-26T18:18:43.997Z,17.30
2022-09-26T18:21:17.494Z,17.50
2022-09-26T18:24:19.457Z,17.40
2022-09-26T18:26:50.634Z,17.20
2022-09-26T18:29:33.051Z,17.10
2022-09-26T18:32:01.105Z,17.10
2022-09-26T18:34:28.081Z,17.00
2022-09-26T18:37:00.101Z,17.00
2022-09-26T18:39:28.856Z,16.90
2022-09-26T18:42:03.621Z,16.90
2022-09-26T18:44:35.239Z,16.90
2022-09-26T18:47:13.227Z,16.80
2022-09-26T18:49:40.962Z,16.80
2022-09-26T18:52:17.911Z,16.80
2022-09-26T18:54:46.015Z,16.70
2022-09-26T18:57:31.910Z,16.70
2022-09-26T19:00:00.090Z,16.70
2022-09-26T19:02:33.686Z,16.70
2022-09-26T19:05:02.624Z,16.70
2022-09-26T19:07:32.538Z,16.70
2022-09-26T19:09:59.494Z,16.70
2022-09-26T19:12:26.624Z,16.80
2022-09-26T19:14:53.496Z,16.70
2022-09-26T19:17:20.951Z,16.80
2022-09-26T19:19:47.972Z,16.90
2022-09-26T19:22:17.471Z,16.70
2022-09-26T19:24:50.231Z,16.60
2022-09-26T19:27:24.825Z,16.70
2022-09-26T19:30:17.145Z,16.50
2022-09-26T19:32:49.163Z,16.60
2022-09-26T19:35:41.292Z,16.70
2022-09-26T19:38:24.570Z,16.70
2022-09-26T19:40:53.619Z,16.60
2022-09-26T19:43:22.111Z,16.60
2022-09-26T19:45:52.390Z,16.70
2022-09-26T19:48:22.396Z,16.70
2022-09-26T19:50:50.730Z,16.60
2022-09-26T19:53:22.380Z,16.70
2022-09-26T19:55:53.459Z,16.70
2022-09-26T19:58:27.726Z,16.50
2022-09-26T20:00:58.265Z,16.60
2022-09-26T20:03:39.942Z,16.60
2022-09-26T20:06:17.908Z,16.60
2022-09-26T20:08:45.018Z,16.50
2022-09-26T20:11:13.436Z,16.50
2022-09-26T20:13:59.062Z,16.50
2022-09-26T20:16:26.526Z,16.50
2022-09-26T20:18:55.764Z,16.50
2022-09-26T20:21:27.373Z,16.50
2022-09-26T20:23:57.413Z,16.60
2022-09-26T20:26:24.910Z,16.70
2022-09-26T20:28:51.911Z,16.40
2022-09-26T20:31:28.589Z,16.60
2022-09-26T20:34:00.037Z,16.50
2022-09-26T20:36:32.841Z,16.50
2022-09-26T20:39:06.476Z,16.50
2022-09-26T20:41:42.130Z,16.50
2022-09-26T20:44:28.110Z,16.50
2022-09-26T20:46:59.223Z,16.50
2022-09-26T20:49:32.020Z,16.50
2022-09-26T20:52:00.491Z,16.50
2022-09-26T20:54:30.920Z,16.50
2022-09-26T20:56:59.332Z,16.50
2022-09-26T20:59:26.880Z,16.60
2022-09-26T21:01:56.750Z,16.70
2022-09-26T21:04:32.577Z,16.50
2022-09-26T21:06:59.742Z,16.50
2022-09-26T21:09:26.709Z,16.50
2022-09-26T21:11:53.762Z,16.50
2022-09-26T21:14:20.720Z,16.50
2022-09-26T21:17:24.001Z,16.60
2022-09-26T21:19:51.440Z,16.60
2022-09-26T21:22:38.954Z,16.70
2022-09-26T21:25:14.117Z,16.70
2022-09-26T21:27:41.037Z,16.60
2022-09-26T21:30:14.668Z,16.70
2022-09-26T21:32:49.645Z,16.70
2022-09-26T21:35:19.625Z,16.70
2022-09-26T21:37:50.646Z,16.80
2022-09-26T21:40:20.104Z,16.70
2022-09-26T21:42:51.143Z,16.80
2022-09-26T21:45:22.473Z,16.80
2022-09-26T21:47:55.721Z,16.70
2022-09-26T21:50:25.478Z,16.80
2022-09-26T21:53:05.071Z,16.80
2022-09-26T21:55:38.816Z,16.80
2022-09-26T21:58:12.936Z,16.80
2022-09-26T22:00:40.686Z,16.80
2022-09-26T22:03:07.689Z,17.00
2022-09-26T22:05:34.779Z,16.80
2022-09-26T22:08:02.081Z,16.80
2022-09-26T22:10:29.586Z,16.80
2022-09-26T22:12:56.492Z,16.90
2022-09-26T22:15:23.832Z,16.90
2022-09-26T22:17:52.869Z,16.80
2022-09-26T22:20:19.771Z,16.70
2022-09-26T22:22:46.731Z,16.70
2022-09-26T22:25:14.030Z,16.80
2022-09-26T22:27:41.671Z,16.70
2022-09-26T22:30:09.693Z,16.70
2022-09-26T22:32:36.784Z,16.70
2022-09-26T22:35:04.424Z,16.70
2022-09-26T22:37:31.511Z,16.70
2022-09-26T22:39:58.600Z,16.70
2022-09-26T22:42:25.534Z,16.70
2022-09-26T22:44:52.433Z,16.80
2022-09-26T22:47:22.183Z,16.60
2022-09-26T22:49:49.552Z,16.60
2022-09-26T22:52:16.638Z,16.70
2022-09-26T22:54:43.470Z,16.70
2022-09-26T22:57:11.303Z,16.70
2022-09-26T22:59:39.608Z,16.90
2022-09-26T23:02:06.593Z,16.70
2022-09-26T23:04:48.466Z,16.70
2022-09-26T23:07:18.850Z,16.60
2022-09-26T23:09:46.644Z,16.60
2022-09-26T23:12:13.550Z,16.70
2022-09-26T23:14:40.508Z,16.70
2022-09-26T23:17:07.576Z,17.00
2022-09-26T23:19:34.580Z,16.70
2022-09-26T23:22:01.895Z,16.70
2022-09-26T23:24:28.808Z,16.70
2022-09-26T23:26:58.658Z,16.80
2022-09-26T23:29:26.404Z,16.60
2022-09-26T23:31:53.406Z,16.60
2022-09-26T23:34:20.800Z,16.60
2022-09-26T23:36:47.877Z,16.60
2022-09-26T23:39:15.132Z,16.60
2022-09-26T23:41:42.185Z,16.60
2022-09-26T23:44:09.817Z,16.60
2022-09-26T23:46:36.811Z,16.50
2022-09-26T23:49:04.112Z,16.60
2022-09-26T23:51:32.605Z,16.50
2022-09-26T23:54:00.029Z,16.40
2022-09-26T23:56:27.170Z,16.40
2022-09-26T23:58:57.198Z,16.40
